• Join FlightAware (Why Join?)
  • Login
  • US Flag 
09:40PM EDT


 

Airport Tracker/Info


-or-


 

Live Flight TrackerFlight Track Log ✈ SKW5476 ✈ 22-Apr-2013 ✈ KSFO - KRDM

Flight Track Log - Related Links

Times and Time Zones

All times are in EDT time to prevent confusion due to time zone crossing. See the SKW5476 flight status page for this flight to view local times or setup timezone preferences in your user account.

Time Position Orientation Groundspeed Altitude Reporting Facility
EDT Latitude Longitude Course Direction KTS MPH feet Rate Location/Type
03:08PM 37.6500 -122.3667 North 138 159 1,100  Level Northern Cal TRACON
03:09PM 37.6967 -122.3653 North 163 188 2,900 1,440 Climbing Oakland Center
03:10PM 37.7458 -122.3686 357° North 180 207 4,300 1,440 Climbing Oakland Center
03:11PM 37.8282 -122.3658 353° North  Level FlightAware Approximate
03:11PM 37.7972 -122.3789 351° North 187 215 5,900  Level Oakland Center
03:12PM 37.8988 -122.3718 345° North  Level FlightAware Approximate
03:12PM 37.8497 -122.3817 358° North 190 219 7,400  Level Oakland Center
03:13PM 37.9650 -122.3667 North  Level FlightAware Approximate
03:13PM 37.9042 -122.3819 360° North 195 224 8,800  Level Oakland Center
03:14PM 37.9611 -122.3819 360° North 203 234 9,900 540 Climbing Oakland Center
03:15PM 38.0250 -122.3792 North 225 259 9,900 360 Level Oakland Center
03:16PM 38.1031 -122.3672 North 234 269 10,700 660 Climbing Oakland Center
03:17PM 38.1642 -122.3553 North 224 258 11,300 540 Climbing Oakland Center
03:18PM 38.2261 -122.3447 North 224 258 11,800 240 Climbing Oakland Center
03:19PM 38.2892 -122.3325 North 227 261 11,900 60 Climbing Oakland Center
03:20PM 38.3561 -122.3211 North 240 276 12,000 120 Climbing Oakland Center
03:21PM 38.4231 -122.3089 North 242 278 12,200 420 Climbing Oakland Center
03:22PM 38.4883 -122.2981 North 239 275 12,900 780 Climbing Oakland Center
03:23PM 38.5464 -122.2869 North 220 253 13,800 960 Climbing Oakland Center
03:24PM 38.6133 -122.2744 North 205 236 14,900 1,020 Climbing Oakland Center
03:25PM 38.6703 -122.2636 North 205 236 15,900 1,080 Climbing Oakland Center
03:26PM 38.7203 -122.2553 North 189 217 17,100 960 Climbing Oakland Center
03:27PM 38.7731 -122.2464 North 189 217 17,900 780 Climbing Oakland Center
03:28PM 38.8297 -122.2347 North 199 229 18,700 720 Climbing Oakland Center
03:29PM 38.8886 -122.2244 North 209 241 19,400 660 Climbing Oakland Center
03:30PM 38.9486 -122.2133 North 213 245 20,100 660 Climbing Oakland Center
03:31PM 39.0053 -122.2036 North 210 242 20,800 720 Climbing Oakland Center
03:32PM 39.0354 -122.1969 North  Level FlightAware Approximate
03:32PM 39.0756 -122.1906 North 209 241 21,600  Level Oakland Center
03:33PM 39.1397 -122.1786 North 221 254 22,200 540 Climbing Oakland Center
03:34PM 39.2006 -122.1675 North 222 255 22,800 540 Climbing Oakland Center
03:35PM 39.2628 -122.1569 North 223 257 23,400 480 Climbing Oakland Center
03:36PM 39.3253 -122.1436 North 226 260 23,900 240 Climbing Oakland Center
03:37PM 39.3900 -122.1308 North 233 268 24,000  Climbing Oakland Center
03:38PM 39.4592 -122.1200 North 246 283 24,000  Level Oakland Center
03:39PM 39.5281 -122.1028 11° North 257 296 24,000  Level Oakland Center
03:40PM 39.6133 -122.0878 North 255 293 24,000  Level Oakland Center
03:42PM 39.6819 -122.0753 North 248 285 24,000  Level Oakland Center
03:43PM 39.7492 -122.0622 North 244 281 24,000  Level Oakland Center
03:44PM 39.8144 -122.0494 North 239 275 24,000  Level Oakland Center
03:45PM 39.8786 -122.0372 North 234 269 24,000  Level Oakland Center
03:46PM 39.9417 -122.0253 North 231 266 24,000  Level Oakland Center
03:47PM 40.0044 -122.0133 North 229 264 24,000  Level Oakland Center
03:48PM 40.0661 -122.0014 North 226 260 24,000  Level Oakland Center
03:49PM 40.1414 -121.9867 North 230 265 24,000  Level Oakland Center
03:50PM 40.2047 -121.9761 North 230 265 24,000  Level Oakland Center
03:51PM 40.2664 -121.9625 10° North 227 261 24,000  Level Oakland Center
03:52PM 40.3267 -121.9519 North 221 254 24,000  Level Oakland Center
03:53PM 40.3864 -121.9411 North 219 252 24,000  Level Oakland Center
03:54PM 40.4469 -121.9300 North 220 253 24,000  Level Oakland Center
03:55PM 40.5086 -121.9169 North 225 259 24,000  Level Oakland Center
03:56PM 40.5706 -121.9050 North 226 260 24,000  Level Oakland Center
03:57PM 40.6439 -121.8903 North 222 255 24,000  Level Oakland Center
03:58PM 40.7047 -121.8786 North 222 255 24,000  Level Oakland Center
03:59PM 40.7644 -121.8675 North 218 251 24,000  Level Oakland Center
04:00PM 40.8239 -121.8553 North 217 250 24,000  Level Oakland Center
04:01PM 40.8850 -121.8433 North 220 253 24,000  Level Oakland Center
04:02PM 40.9461 -121.8306 North 221 254 24,000  Level Oakland Center
04:03PM 41.0086 -121.8186 North 225 259 24,000  Level Oakland Center
04:04PM 41.0708 -121.8072 North 225 259 24,000  Level Oakland Center
04:05PM 41.1336 -121.7997 North 226 260 24,000  Level Oakland Center
04:05PM 41.1583 -121.7944 North 224 258 24,000  Level Seattle Center
04:06PM 41.2206 -121.7817 North 226 260 24,000  Level Seattle Center
04:07PM 41.2825 -121.7694 North 225 259 24,000  Level Seattle Center
04:08PM 41.3425 -121.7567 North 221 254 24,000  Level Seattle Center
04:09PM 41.4017 -121.7458 North 214 246 24,000  Level Seattle Center
04:10PM 41.4597 -121.7347 North 212 244 24,000  Level Seattle Center
04:11PM 41.5181 -121.7228 North 213 245 24,000  Level Seattle Center
04:12PM 41.5775 -121.7097 North 216 249 24,000  Level Seattle Center
04:13PM 41.6381 -121.6986 North 220 253 24,000  Level Seattle Center
04:14PM 41.6978 -121.6861 North 219 252 24,000  Level Seattle Center
04:15PM 41.7675 -121.6714 North 214 246 24,000  Level Seattle Center
04:16PM 41.8267 -121.6606 North 216 249 24,000  Level Seattle Center
04:17PM 41.8853 -121.6497 North 214 246 24,000  Level Seattle Center
04:19PM 41.9431 -121.6381 North 212 244 24,000  Level Seattle Center
04:20PM 41.9994 -121.6239 11° North 210 242 24,000  Level Seattle Center
04:21PM 42.0569 -121.6133 North 210 242 24,000  Level Seattle Center
04:22PM 42.1156 -121.6019 North 213 245 24,000  Level Seattle Center
04:23PM 42.1736 -121.5883 10° North 213 245 24,000  Level Seattle Center
04:24PM 42.2311 -121.5767 North 211 243 24,000  Level Seattle Center
04:25PM 42.2894 -121.5664 North 212 244 24,000  Level Seattle Center
04:26PM 42.3597 -121.5500 10° North 214 246 24,000 -240 Level Seattle Center
04:27PM 42.4183 -121.5375 North 214 246 23,600 -540 Descending Seattle Center
04:28PM 42.4825 -121.5242 North 227 261 23,000 -600 Descending Seattle Center
04:29PM 42.5481 -121.5094 North 237 273 22,500 -480 Descending Seattle Center
04:30PM 42.6111 -121.4975 North 231 266 22,100 -300 Descending Seattle Center
04:31PM 42.6731 -121.4839 North 226 260 22,000 -60 Descending Seattle Center
04:32PM 42.7322 -121.4519 22° Northeast 227 261 22,000 -180 Level Seattle Center
04:33PM 42.7889 -121.4219 21° North 222 255 21,700 -540 Descending Seattle Center
04:34PM 42.8481 -121.3908 21° North 226 260 21,000 -600 Descending Seattle Center
04:35PM 42.9092 -121.3681 15° North 229 264 20,500 -600 Descending Seattle Center
04:36PM 42.9708 -121.3625 North 218 251 19,800 -840 Descending Seattle Center
04:37PM 43.0289 -121.3522 North 216 249 18,800 -1,080 Descending Seattle Center
04:38PM 43.0978 -121.3411 North 208 239 17,700 -1,080 Descending Seattle Center
04:39PM 43.1531 -121.3322 North 202 232 16,700 -1,080 Descending Seattle Center
04:40PM 43.2067 -121.3236 North 196 226 15,600 -1,140 Descending Seattle Center
04:41PM 43.2631 -121.3153 North 203 234 14,400 -1,200 Descending Seattle Center
04:42PM 43.3228 -121.3061 North 214 246 13,200 -1,080 Descending Seattle Center
04:43PM 43.3828 -121.2958 North 217 250 12,300 -960 Descending Seattle Center
04:44PM 43.4411 -121.2869 North 214 246 11,300 -1,020 Descending Seattle Center
04:45PM 43.5019 -121.2758 North 219 252 10,300 -660 Descending Seattle Center
04:46PM 43.5650 -121.2642 North 220 253 10,000 -180 Descending Seattle Center
04:47PM 43.6247 -121.2544 North 217 250 10,000  Level Seattle Center
04:48PM 43.6842 -121.2450 North 215 247 10,000  Level Seattle Center
04:49PM 43.7433 -121.2353 North 214 246 10,000  Level Seattle Center
04:50PM 43.8022 -121.2258 North 213 245 10,000  Level Seattle Center
04:51PM 43.8606 -121.2161 North 212 244 10,000 -720 Level Seattle Center
04:52PM 43.9319 -121.2028 North 213 245 8,600 -1,020 Descending Seattle Center
04:53PM 43.9942 -121.1919 North 219 252 8,000 -660 Descending Seattle Center
04:54PM 44.0536 -121.1831 North 219 252 7,300 -780 Descending Seattle Center
04:55PM 44.1117 -121.1669 11° North 217 250 6,500 -1,140 Descending Seattle Center
04:56PM 44.1667 -121.1389 20° North 214 246 5,100 -1,380 Descending Seattle Center